Time;durP1;ratioP1;P1;durP2;ratioP2;P2;SDS_P1;SDS_P2;PMS_P1;PMS_P2;Temp;Humidity;BMP_temperature;BMP_pressure;BME280_temperature;BME280_humidity;BME280_pressure;Samples;Min_cycle;Max_cycle;Signal;HPM_P1;HPM_P2
2022/03/11 00:01:43;;;;;;;21.42;9.68;;;;;;;1.16;46.21;103359.47;4939420;28;20508;-48
2022/03/11 00:04:09;;;;;;;22.52;10.57;;;;;;;1.12;46.05;103360.69;4941318;29;20027;-46
2022/03/11 00:06:35;;;;;;;24.55;11.02;;;;;;;1.09;46.40;103353.84;4942101;28;20023;-49
2022/03/11 00:09:02;;;;;;;23.83;10.23;;;;;;;1.07;46.41;103358.38;4941943;29;20031;-46
2022/03/11 00:11:27;;;;;;;21.90;10.38;;;;;;;1.03;46.07;103354.31;4941834;28;20360;-49
2022/03/11 00:13:53;;;;;;;21.52;10.00;;;;;;;1.03;46.30;103361.41;4939190;29;20023;-47
2022/03/11 00:16:19;;;;;;;24.20;10.40;;;;;;;1.02;46.30;103365.00;4943553;28;20023;-47
2022/03/11 00:18:45;;;;;;;23.05;10.75;;;;;;;1.00;46.57;103361.66;4939570;28;20055;-49
2022/03/11 00:21:12;;;;;;;20.40;10.80;;;;;;;1.00;46.37;103362.47;4943782;29;20031;-48
2022/03/11 00:23:42;;;;;;;23.58;10.38;;;;;;;0.98;46.35;103355.66;4940119;28;20030;-46
2022/03/11 00:26:08;;;;;;;23.02;10.63;;;;;;;0.98;46.81;103359.13;4940367;28;20282;-47
2022/03/11 00:28:34;;;;;;;21.83;10.35;;;;;;;0.95;46.29;103354.09;4939772;29;20019;-49
2022/03/11 00:31:00;;;;;;;22.48;10.38;;;;;;;0.94;46.42;103362.13;4938917;28;20042;-46
2022/03/11 00:33:25;;;;;;;19.98;9.65;;;;;;;0.92;46.36;103364.91;4938602;28;20034;-48
2022/03/11 00:35:51;;;;;;;24.35;10.07;;;;;;;0.88;46.53;103364.28;4938934;28;20034;-46
2022/03/11 00:38:17;;;;;;;20.80;11.02;;;;;;;0.84;46.48;103356.72;4940418;28;20031;-47
2022/03/11 00:40:42;;;;;;;21.70;10.63;;;;;;;0.80;46.56;103358.78;4937091;28;20477;-46
2022/03/11 00:43:08;;;;;;;25.23;11.63;;;;;;;0.79;46.47;103357.09;4943987;28;20039;-48
2022/03/11 00:45:33;;;;;;;22.13;10.65;;;;;;;0.79;46.26;103361.53;4949008;28;20086;-48
2022/03/11 00:47:58;;;;;;;27.90;11.13;;;;;;;0.77;46.55;103356.38;4945585;29;20039;-48
2022/03/11 00:50:24;;;;;;;23.60;10.07;;;;;;;0.73;46.44;103362.88;4948633;28;20606;-46
2022/03/11 00:52:50;;;;;;;30.50;9.95;;;;;;;0.72;46.70;103353.28;4946365;29;20059;-46
2022/03/11 00:55:16;;;;;;;22.85;9.60;;;;;;;0.70;46.19;103352.53;4947580;28;20498;-48
2022/03/11 00:57:42;;;;;;;19.05;9.20;;;;;;;0.70;46.41;103344.59;4945996;29;20019;-47
2022/03/11 01:00:09;;;;;;;21.33;9.57;;;;;;;0.70;46.76;103349.03;4940487;29;20510;-46
2022/03/11 01:02:35;;;;;;;22.20;10.07;;;;;;;0.68;46.74;103351.81;4949185;28;20031;-48
2022/03/11 01:05:03;;;;;;;23.02;10.20;;;;;;;0.67;46.40;103346.66;4947416;28;20031;-46
2022/03/11 01:07:28;;;;;;;21.75;10.00;;;;;;;0.65;46.64;103341.50;4948371;28;20026;-48
2022/03/11 01:09:54;;;;;;;20.92;9.77;;;;;;;0.63;46.40;103348.69;4943868;28;20031;-46
2022/03/11 01:12:21;;;;;;;24.77;10.00;;;;;;;0.62;46.91;103347.00;4944220;28;20035;-46
2022/03/11 01:14:46;;;;;;;21.73;10.65;;;;;;;0.59;46.83;103348.09;4946870;29;20035;-47
2022/03/11 01:17:12;;;;;;;19.08;10.15;;;;;;;0.57;47.08;103342.09;4947900;28;20089;-48
2022/03/11 01:19:39;;;;;;;23.25;9.45;;;;;;;0.56;47.15;103343.06;4947552;28;20086;-47
2022/03/11 01:22:05;;;;;;;19.63;9.95;;;;;;;0.56;46.99;103347.50;4946706;28;20063;-47
2022/03/11 01:24:32;;;;;;;19.50;10.40;;;;;;;0.54;46.80;103344.16;4943857;29;20027;-49
2022/03/11 01:26:58;;;;;;;25.08;10.13;;;;;;;0.51;47.37;103339.09;4947595;28;20031;-47
2022/03/11 01:29:23;;;;;;;24.95;11.13;;;;;;;0.49;46.69;103339.19;4949053;28;20024;-46
2022/03/11 01:31:50;;;;;;;21.60;9.73;;;;;;;0.47;47.16;103338.47;4946244;28;20531;-46
2022/03/11 01:34:16;;;;;;;22.60;10.77;;;;;;;0.46;46.90;103334.16;4947664;28;20505;-45
2022/03/11 01:36:42;;;;;;;22.92;10.68;;;;;;;0.44;47.23;103340.53;4945089;28;20066;-49
2022/03/11 01:39:07;;;;;;;25.23;9.88;;;;;;;0.41;46.84;103336.31;4944215;28;20036;-48
2022/03/11 01:41:33;;;;;;;18.20;9.48;;;;;;;0.40;47.33;103341.72;4944783;28;20259;-47
2022/03/11 01:44:01;;;;;;;19.80;9.82;;;;;;;0.40;47.47;103336.44;4946296;28;20277;-47
2022/03/11 01:46:30;;;;;;;23.45;10.05;;;;;;;0.36;47.22;103332.34;4949857;29;20560;-46
2022/03/11 01:49:00;;;;;;;25.60;10.45;;;;;;;0.32;47.13;103330.91;4948043;29;20035;-49
2022/03/11 01:51:27;;;;;;;24.75;10.23;;;;;;;0.30;47.43;103329.22;4946491;29;20110;-47
2022/03/11 01:53:54;;;;;;;25.80;10.55;;;;;;;0.30;47.17;103328.38;4943513;28;20086;-49
2022/03/11 01:56:23;;;;;;;20.73;10.05;;;;;;;0.28;47.41;103336.41;4941483;28;20034;-46
2022/03/11 01:58:50;;;;;;;22.85;10.18;;;;;;;0.25;47.74;103330.53;4945009;28;20482;-47
2022/03/11 02:01:17;;;;;;;23.90;10.10;;;;;;;0.24;47.16;103324.44;4945253;29;20045;-49
2022/03/11 02:03:43;;;;;;;21.48;9.98;;;;;;;0.24;47.15;103339.41;4944605;28;20075;-48
2022/03/11 02:06:09;;;;;;;25.35;10.27;;;;;;;0.21;47.96;103323.84;4944563;28;20439;-47
2022/03/11 02:08:35;;;;;;;20.58;9.35;;;;;;;0.21;47.92;103337.84;4943873;28;20388;-46
2022/03/11 02:11:01;;;;;;;24.83;9.93;;;;;;;0.21;47.42;103337.00;4941817;29;20089;-46
2022/03/11 02:13:27;;;;;;;20.77;10.55;;;;;;;0.19;47.67;103329.22;4941965;29;20512;-47
2022/03/11 02:15:53;;;;;;;24.80;10.27;;;;;;;0.18;47.50;103338.09;4941667;28;20042;-46
2022/03/11 02:18:19;;;;;;;21.23;10.50;;;;;;;0.14;47.21;103333.97;4942250;28;20023;-46
2022/03/11 02:20:48;;;;;;;25.70;8.95;;;;;;;0.09;47.70;103328.22;4942174;28;20032;-48
2022/03/11 02:23:15;;;;;;;26.17;9.60;;;;;;;0.09;47.89;103328.22;4943422;28;20452;-48
2022/03/11 02:25:41;;;;;;;27.55;10.55;;;;;;;0.08;47.60;103328.34;4942571;28;20678;-46
2022/03/11 02:28:07;;;;;;;21.10;9.50;;;;;;;0.06;47.66;103327.63;4941712;29;20031;-48
2022/03/11 02:30:32;;;;;;;23.63;10.55;;;;;;;0.05;47.50;103320.69;4939640;28;20731;-47
2022/03/11 02:32:58;;;;;;;21.80;9.75;;;;;;;0.03;47.37;103325.22;4943861;29;20046;-48
2022/03/11 02:35:24;;;;;;;23.23;9.98;;;;;;;-0.01;47.46;103317.53;4944083;28;20660;-46
2022/03/11 02:37:49;;;;;;;19.75;9.25;;;;;;;-0.04;47.68;103312.50;4941647;28;20027;-48
2022/03/11 02:40:15;;;;;;;19.63;8.95;;;;;;;-0.06;47.43;103311.78;4939906;28;20027;-46
2022/03/11 02:42:41;;;;;;;24.38;9.52;;;;;;;-0.09;47.55;103322.56;4942503;28;20032;-48
2022/03/11 02:45:07;;;;;;;17.58;8.88;;;;;;;-0.12;47.63;103316.69;4942445;28;20248;-46
2022/03/11 02:47:33;;;;;;;22.00;9.48;;;;;;;-0.14;47.44;103310.69;4944426;28;20046;-46
2022/03/11 02:49:58;;;;;;;22.33;9.82;;;;;;;-0.16;47.44;103313.44;4942217;28;20035;-46
2022/03/11 02:52:26;;;;;;;18.13;9.15;;;;;;;-0.16;47.59;103307.31;4941366;28;20183;-49
2022/03/11 02:54:51;;;;;;;18.95;8.65;;;;;;;-0.20;47.73;103311.97;4944864;29;20034;-46
2022/03/11 02:57:17;;;;;;;20.90;9.30;;;;;;;-0.22;47.76;103305.13;4942396;28;20542;-47
2022/03/11 02:59:44;;;;;;;22.35;9.23;;;;;;;-0.25;47.38;103305.38;4938271;28;20500;-46
2022/03/11 03:02:10;;;;;;;19.67;9.15;;;;;;;-0.26;47.87;103316.84;4942343;28;20437;-48
2022/03/11 03:04:36;;;;;;;24.27;9.13;;;;;;;-0.28;47.54;103309.06;4940679;28;20122;-46
2022/03/11 03:07:02;;;;;;;24.08;9.00;;;;;;;-0.31;47.36;103302.25;4942677;28;20122;-48
2022/03/11 03:09:28;;;;;;;20.02;10.10;;;;;;;-0.34;47.93;103299.84;4942204;28;20024;-47
2022/03/11 03:11:53;;;;;;;22.73;8.52;;;;;;;-0.36;47.56;103312.28;4942645;28;20042;-46
2022/03/11 03:14:19;;;;;;;18.08;9.30;;;;;;;-0.38;48.04;103301.00;4945023;28;20031;-47
2022/03/11 03:16:45;;;;;;;16.17;8.93;;;;;;;-0.38;47.66;103302.78;4942595;28;20039;-46
2022/03/11 03:19:10;;;;;;;19.90;9.50;;;;;;;-0.41;47.53;103303.88;4944472;28;20023;-48
2022/03/11 03:21:36;;;;;;;20.25;8.95;;;;;;;-0.45;48.05;103306.84;4939600;28;20086;-46
2022/03/11 03:24:01;;;;;;;21.30;9.45;;;;;;;-0.46;47.64;103310.44;4942253;28;20102;-46
2022/03/11 03:26:27;;;;;;;20.23;8.95;;;;;;;-0.49;47.88;103306.25;4941010;28;20023;-46
2022/03/11 03:28:52;;;;;;;22.30;8.73;;;;;;;-0.49;47.54;103308.03;4940685;28;20441;-48
2022/03/11 03:31:19;;;;;;;23.17;10.05;;;;;;;-0.51;48.21;103308.16;4940352;29;20035;-46
2022/03/11 03:33:45;;;;;;;16.52;8.43;;;;;;;-0.51;48.19;103302.88;4943601;28;20126;-46
2022/03/11 03:36:11;;;;;;;24.25;9.88;;;;;;;-0.53;47.87;103310.06;4942778;28;20050;-48
2022/03/11 03:38:36;;;;;;;20.15;9.23;;;;;;;-0.56;47.96;103312.88;4939479;29;20034;-48
2022/03/11 03:41:02;;;;;;;21.50;9.48;;;;;;;-0.58;48.08;103306.91;4945538;28;20457;-46
2022/03/11 03:43:28;;;;;;;20.38;9.38;;;;;;;-0.59;47.63;103312.28;4943132;28;20465;-46
2022/03/11 03:45:53;;;;;;;23.33;9.40;;;;;;;-0.62;47.60;103313.34;4941291;28;20141;-48
2022/03/11 03:48:19;;;;;;;23.23;9.15;;;;;;;-0.65;48.20;103324.09;4942363;28;20043;-49
2022/03/11 03:50:45;;;;;;;17.73;9.35;;;;;;;-0.66;47.87;103323.28;4943757;28;21889;-48
2022/03/11 03:53:11;;;;;;;18.85;8.90;;;;;;;-0.68;48.08;103326.97;4939645;28;20485;-48
2022/03/11 03:55:36;;;;;;;26.10;9.55;;;;;;;-0.72;48.30;103318.47;4943774;29;20038;-47
2022/03/11 03:58:02;;;;;;;25.20;8.57;;;;;;;-0.72;48.29;103320.22;4943737;28;20063;-49
2022/03/11 04:00:28;;;;;;;17.98;8.65;;;;;;;-0.74;47.95;103319.50;4938760;28;20488;-49
2022/03/11 04:02:54;;;;;;;18.95;8.73;;;;;;;-0.77;47.80;103307.41;4940467;29;20081;-46
2022/03/11 04:05:20;;;;;;;19.65;9.25;;;;;;;-0.77;48.04;103312.66;4942979;28;20031;-46
2022/03/11 04:07:46;;;;;;;23.42;9.60;;;;;;;-0.80;47.70;103310.25;4941181;29;20089;-47
2022/03/11 04:10:13;;;;;;;17.52;8.80;;;;;;;-0.82;48.10;103303.44;4939585;28;20023;-46
2022/03/11 04:12:38;;;;;;;20.15;9.35;;;;;;;-0.84;48.27;103306.19;4939259;29;20081;-47
2022/03/11 04:15:05;;;;;;;20.52;10.98;;;;;;;-0.85;48.06;103307.13;4939749;29;20034;-48
2022/03/11 04:17:30;;;;;;;22.88;9.68;;;;;;;-0.84;48.13;103310.59;4943068;28;20337;-48
2022/03/11 04:19:56;;;;;;;23.85;10.27;;;;;;;-0.85;48.26;103303.66;4938022;29;20420;-46
2022/03/11 04:22:21;;;;;;;19.92;9.30;;;;;;;-0.86;48.17;103301.97;4942055;28;20027;-46
2022/03/11 04:24:47;;;;;;;19.58;8.90;;;;;;;-0.87;48.24;103297.66;4941708;28;20053;-46
2022/03/11 04:27:12;;;;;;;17.70;9.45;;;;;;;-0.89;48.34;103299.56;4942036;28;20046;-46
2022/03/11 04:29:38;;;;;;;25.58;10.05;;;;;;;-0.89;47.89;103302.19;4940986;29;20509;-49
2022/03/11 04:32:05;;;;;;;20.38;10.00;;;;;;;-0.91;49.05;103294.38;4942574;29;20066;-46
2022/03/11 04:34:30;;;;;;;29.23;10.35;;;;;;;-0.92;48.49;103293.56;4940583;28;20027;-46
2022/03/11 04:36:56;;;;;;;28.90;10.82;;;;;;;-0.93;48.87;103294.50;4940531;29;20585;-46
2022/03/11 04:39:24;;;;;;;30.13;10.60;;;;;;;-0.91;49.14;103297.84;4938549;28;20070;-46
2022/03/11 04:41:50;;;;;;;31.45;10.70;;;;;;;-0.92;48.51;103292.72;4942011;29;20035;-48
2022/03/11 04:44:15;;;;;;;22.92;9.88;;;;;;;-0.93;48.75;103291.88;4941080;28;20036;-46
2022/03/11 04:46:41;;;;;;;24.27;10.85;;;;;;;-0.94;49.33;103291.97;4943812;28;20036;-46
2022/03/11 04:49:06;;;;;;;27.05;12.38;;;;;;;-0.95;49.03;103283.25;4940820;28;20106;-46
2022/03/11 04:51:32;;;;;;;25.90;11.27;;;;;;;-0.98;49.23;103287.91;4939631;29;20366;-46
2022/03/11 04:53:59;;;;;;;29.92;11.40;;;;;;;-1.01;48.85;103288.13;4941314;29;20027;-47
2022/03/11 04:56:24;;;;;;;27.42;11.10;;;;;;;-1.00;49.31;103288.00;4942125;28;20027;-49
2022/03/11 04:58:50;;;;;;;28.63;11.73;;;;;;;-1.02;49.33;103297.81;4941484;29;20077;-50
2022/03/11 05:01:16;;;;;;;25.55;10.82;;;;;;;-1.04;49.86;103289.19;4939741;28;20035;-46
2022/03/11 05:03:41;;;;;;;23.83;11.77;;;;;;;-1.06;49.45;103300.78;4941958;28;20082;-47
2022/03/11 05:06:07;;;;;;;26.13;11.98;;;;;;;-1.07;49.27;103299.94;4940728;29;20042;-48
2022/03/11 05:08:32;;;;;;;24.58;12.20;;;;;;;-1.08;49.30;103302.66;4941637;28;20043;-47
2022/03/11 05:10:58;;;;;;;24.38;11.15;;;;;;;-1.08;49.44;103307.91;4938990;28;20525;-48
2022/03/11 05:13:23;;;;;;;22.48;10.98;;;;;;;-1.09;49.85;103312.34;4942708;29;20457;-46
2022/03/11 05:15:49;;;;;;;23.90;10.10;;;;;;;-1.10;49.50;103308.03;4941675;28;20118;-48
2022/03/11 05:18:15;;;;;;;25.25;11.13;;;;;;;-1.11;50.14;103321.28;4938038;28;20474;-48
2022/03/11 05:20:40;;;;;;;24.73;11.18;;;;;;;-1.14;49.51;103309.19;4938182;29;20031;-47
2022/03/11 05:23:06;;;;;;;22.98;10.52;;;;;;;-1.14;49.66;103311.00;4939316;29;20039;-45
2022/03/11 05:25:31;;;;;;;22.17;10.63;;;;;;;-1.18;49.67;103318.25;4939418;28;20024;-47
2022/03/11 05:27:57;;;;;;;35.72;11.15;;;;;;;-1.19;49.71;103321.84;4941857;28;20277;-45
2022/03/11 05:30:22;;;;;;;25.15;12.32;;;;;;;-1.17;49.43;103324.38;4940507;29;20102;-45
2022/03/11 05:32:48;;;;;;;27.35;11.30;;;;;;;-1.19;50.53;103327.09;4944269;29;20027;-47
2022/03/11 05:35:15;;;;;;;30.88;10.93;;;;;;;-1.20;50.01;103320.16;4939423;28;20030;-46
2022/03/11 05:37:40;;;;;;;24.33;11.18;;;;;;;-1.23;49.88;103321.22;4944142;29;20027;-46
2022/03/11 05:40:07;;;;;;;26.33;11.93;;;;;;;-1.24;50.53;103329.22;4938433;28;20023;-45
2022/03/11 05:42:33;;;;;;;35.72;12.40;;;;;;;-1.24;49.98;103324.81;4945586;28;20027;-47
2022/03/11 05:44:58;;;;;;;30.48;11.10;;;;;;;-1.25;50.41;103323.13;4943182;28;20126;-46
2022/03/11 05:47:24;;;;;;;32.90;11.52;;;;;;;-1.23;50.17;103328.28;4941502;28;20035;-45
2022/03/11 05:49:49;;;;;;;23.30;10.98;;;;;;;-1.21;50.24;103329.00;4943629;28;20090;-46
2022/03/11 05:52:15;;;;;;;28.70;11.15;;;;;;;-1.22;50.49;103327.31;4943611;29;20098;-47
2022/03/11 05:54:40;;;;;;;26.60;10.57;;;;;;;-1.21;50.54;103329.00;4942064;28;20114;-46
2022/03/11 05:57:06;;;;;;;31.63;11.73;;;;;;;-1.21;50.20;103326.38;4944222;29;20031;-47
2022/03/11 05:59:32;;;;;;;30.88;10.65;;;;;;;-1.18;50.19;103326.16;4941616;28;20019;-45
2022/03/11 06:01:58;;;;;;;28.92;12.55;;;;;;;-1.16;50.66;103320.78;4942542;28;20035;-47
2022/03/11 06:04:24;;;;;;;26.55;11.13;;;;;;;-1.10;50.44;103330.84;4943156;28;20019;-45
2022/03/11 06:06:49;;;;;;;27.83;11.48;;;;;;;-1.05;49.88;103334.88;4939081;29;20050;-46
2022/03/11 06:09:15;;;;;;;28.23;10.80;;;;;;;-0.99;49.90;103344.94;4940229;28;20023;-45
2022/03/11 06:11:40;;;;;;;28.88;11.95;;;;;;;-0.92;50.63;103347.97;4937773;29;20157;-45
2022/03/11 06:14:07;;;;;;;24.00;11.60;;;;;;;-0.89;50.09;103342.53;4938858;29;20023;-46
2022/03/11 06:16:33;;;;;;;23.98;11.13;;;;;;;-0.82;49.75;103353.44;4939507;28;20023;-45
2022/03/11 06:18:59;;;;;;;23.75;11.95;;;;;;;-0.77;49.96;103348.69;4944662;29;20038;-46
2022/03/11 06:21:25;;;;;;;61.22;12.80;;;;;;;-0.71;49.88;103353.53;4947112;28;20023;-45
2022/03/11 06:23:51;;;;;;;27.35;11.55;;;;;;;-0.68;49.78;103353.31;4946463;29;20086;-45
2022/03/11 06:26:18;;;;;;;28.83;12.05;;;;;;;-0.65;49.69;103353.06;4946631;29;20031;-46
2022/03/11 06:28:43;;;;;;;28.60;11.88;;;;;;;-0.60;49.69;103358.84;4946046;28;20158;-46
2022/03/11 06:31:11;;;;;;;27.88;12.82;;;;;;;-0.55;49.63;103350.59;4945009;28;20628;-45
2022/03/11 06:33:37;;;;;;;27.13;11.57;;;;;;;-0.51;49.60;103352.09;4945333;28;20034;-45
2022/03/11 06:36:04;;;;;;;25.55;11.73;;;;;;;-0.47;50.05;103357.00;4944820;28;20117;-45
2022/03/11 06:38:29;;;;;;;28.38;12.98;;;;;;;-0.43;49.80;103361.09;4944017;29;20541;-45
2022/03/11 06:40:56;;;;;;;28.63;12.52;;;;;;;-0.40;49.60;103358.22;4944918;28;20050;-45
2022/03/11 06:43:22;;;;;;;24.63;11.75;;;;;;;-0.36;49.83;103356.19;4946614;28;20059;-45
2022/03/11 06:45:48;;;;;;;27.80;11.70;;;;;;;-0.31;50.06;103354.94;4940693;28;20138;-46
2022/03/11 06:48:14;;;;;;;29.88;14.00;;;;;;;-0.26;49.80;103354.59;4945531;28;20138;-46
2022/03/11 06:50:41;;;;;;;32.03;13.00;;;;;;;-0.23;49.23;103349.09;4943918;28;20485;-45
2022/03/11 06:53:06;;;;;;;29.42;12.23;;;;;;;-0.14;49.31;103352.84;4945409;29;20568;-46
2022/03/11 06:55:32;;;;;;;27.05;12.60;;;;;;;-0.06;49.75;103343.41;4944828;28;20180;-45
2022/03/11 06:57:59;;;;;;;28.50;13.07;;;;;;;0.00;49.53;103350.03;4945617;28;22185;-45
2022/03/11 07:00:25;;;;;;;30.92;12.65;;;;;;;0.05;49.17;103342.59;4946167;29;20034;-46
2022/03/11 07:02:50;;;;;;;31.92;12.35;;;;;;;0.09;48.97;103341.41;4945976;28;20035;-45
2022/03/11 07:05:16;;;;;;;34.03;13.77;;;;;;;0.14;48.78;103339.25;4942679;28;20355;-45
2022/03/11 07:07:41;;;;;;;34.72;12.63;;;;;;;0.21;49.14;103337.84;4945666;28;20453;-45
2022/03/11 07:10:12;;;;;;;27.98;12.73;;;;;;;0.23;48.61;103335.94;4944310;29;20015;-45
2022/03/11 07:12:38;;;;;;;42.58;14.27;;;;;;;0.30;49.00;103341.56;4943887;28;20421;-46
2022/03/11 07:15:05;;;;;;;35.78;12.80;;;;;;;0.37;48.67;103342.81;4945230;29;20493;-47
2022/03/11 07:17:32;;;;;;;27.50;12.73;;;;;;;0.45;48.88;103335.13;4946672;28;20118;-46
2022/03/11 07:19:58;;;;;;;30.33;12.90;;;;;;;0.54;48.46;103341.50;4940761;29;20031;-46
2022/03/11 07:22:24;;;;;;;27.77;11.57;;;;;;;0.61;48.02;103337.41;4944982;29;20038;-45
2022/03/11 07:24:50;;;;;;;30.65;11.20;;;;;;;0.66;47.45;103348.44;4941018;29;20101;-45
2022/03/11 07:27:16;;;;;;;21.20;10.07;;;;;;;0.66;47.79;103331.78;4940272;29;20031;-44
2022/03/11 07:29:42;;;;;;;27.02;10.57;;;;;;;0.70;47.45;103331.41;4943661;28;20122;-46
2022/03/11 07:32:09;;;;;;;26.02;10.45;;;;;;;0.80;47.98;103335.03;4943407;28;20122;-45
2022/03/11 07:34:35;;;;;;;29.30;10.50;;;;;;;0.92;47.16;103335.03;4940766;29;20019;-45
2022/03/11 07:37:01;;;;;;;22.05;10.45;;;;;;;0.98;47.02;103337.16;4940267;29;20038;-45
2022/03/11 07:39:27;;;;;;;21.58;10.05;;;;;;;1.02;46.85;103320.13;4942130;28;20066;-45
2022/03/11 07:41:52;;;;;;;23.33;10.73;;;;;;;1.09;46.71;103327.44;4943209;28;20522;-45
2022/03/11 07:44:18;;;;;;;28.75;11.88;;;;;;;1.16;46.61;103333.91;4940894;28;20448;-46
2022/03/11 07:46:44;;;;;;;34.95;11.90;;;;;;;1.25;46.35;103331.47;4943653;28;20584;-45
2022/03/11 07:49:10;;;;;;;29.00;10.93;;;;;;;1.29;46.32;103331.13;4943750;28;20536;-46
2022/03/11 07:51:36;;;;;;;26.33;10.07;;;;;;;1.34;45.87;103334.22;4941979;28;20098;-45
2022/03/11 07:54:02;;;;;;;26.55;10.02;;;;;;;1.37;45.90;103323.41;4942853;28;20386;-45
2022/03/11 07:56:27;;;;;;;22.85;10.57;;;;;;;1.43;45.33;103335.25;4942832;28;20023;-45
2022/03/11 07:58:56;;;;;;;25.33;10.10;;;;;;;1.52;45.42;103326.59;4944407;28;20027;-45
2022/03/11 08:01:22;;;;;;;26.05;8.70;;;;;;;1.55;45.26;103333.44;4944150;28;20031;-45
2022/03/11 08:03:47;;;;;;;19.02;9.15;;;;;;;1.61;45.16;103336.41;4943925;28;20078;-45
2022/03/11 08:06:13;;;;;;;26.85;10.93;;;;;;;1.64;44.82;103335.34;4944214;29;20035;-46
2022/03/11 08:08:39;;;;;;;19.30;8.57;;;;;;;1.73;44.44;103345.97;4943672;28;20389;-45
2022/03/11 08:11:06;;;;;;;20.98;8.40;;;;;;;1.80;44.43;103333.94;4941666;28;20098;-45
2022/03/11 08:13:33;;;;;;;21.45;9.02;;;;;;;1.92;44.58;103347.09;4931473;29;20454;-45
2022/03/11 08:16:00;;;;;;;21.13;9.10;;;;;;;1.99;44.34;103351.75;4936872;28;20051;-46
2022/03/11 08:18:25;;;;;;;20.05;9.15;;;;;;;2.06;43.78;103342.34;4941007;28;20027;-45
2022/03/11 08:20:51;;;;;;;19.98;8.95;;;;;;;2.16;43.99;103331.84;4936390;28;20035;-45
2022/03/11 08:23:16;;;;;;;18.77;8.75;;;;;;;2.29;43.78;103337.75;4937008;29;20031;-46
2022/03/11 08:25:42;;;;;;;24.45;9.63;;;;;;;2.35;43.41;103344.34;4938524;28;20413;-45
2022/03/11 08:28:10;;;;;;;21.77;8.93;;;;;;;2.41;43.34;103341.16;4942034;28;20035;-46
2022/03/11 08:30:40;;;;;;;21.73;7.97;;;;;;;2.47;43.14;103347.72;4940325;28;20035;-46
2022/03/11 08:33:07;;;;;;;22.02;9.15;;;;;;;2.53;43.21;103349.88;4941348;28;20240;-45
2022/03/11 08:35:32;;;;;;;19.88;8.77;;;;;;;2.60;42.84;103351.84;4938858;28;20078;-45
2022/03/11 08:37:59;;;;;;;19.48;10.35;;;;;;;2.68;42.81;103344.06;4942850;28;20366;-45
2022/03/11 08:40:26;;;;;;;18.30;8.27;;;;;;;2.75;42.52;103343.56;4940218;28;20030;-45
2022/03/11 08:42:52;;;;;;;16.73;8.32;;;;;;;2.81;42.16;103335.06;4942700;29;20031;-45
2022/03/11 08:45:21;;;;;;;20.98;8.18;;;;;;;2.88;42.10;103336.25;4942616;28;20215;-45
2022/03/11 08:47:50;;;;;;;19.27;8.00;;;;;;;2.97;42.08;103338.06;4942006;29;20040;-45
2022/03/11 08:50:19;;;;;;;18.25;7.90;;;;;;;3.06;41.98;103334.63;4941139;28;20039;-45
2022/03/11 08:52:45;;;;;;;18.73;9.02;;;;;;;3.14;41.84;103333.94;4941245;29;20039;-44
2022/03/11 08:55:12;;;;;;;15.30;7.50;;;;;;;3.22;41.69;103347.31;4953855;28;20046;-45
2022/03/11 08:57:38;;;;;;;24.95;9.90;;;;;;;3.30;41.53;103328.94;4941622;28;20409;-45
2022/03/11 09:00:05;;;;;;;17.05;8.07;;;;;;;3.40;41.37;103337.72;4941753;28;20023;-45
2022/03/11 09:02:31;;;;;;;21.45;8.65;;;;;;;3.46;40.98;103329.25;4941444;28;20085;-47
2022/03/11 09:04:56;;;;;;;18.23;8.85;;;;;;;3.54;40.99;103316.13;4945608;28;20557;-45
2022/03/11 09:07:28;;;;;;;22.67;8.65;;;;;;;3.66;41.09;103323.97;4945072;28;20034;-47
2022/03/11 09:09:54;;;;;;;14.93;7.60;;;;;;;3.75;40.60;103323.94;4944351;29;20058;-45
2022/03/11 09:12:20;;;;;;;19.73;8.82;;;;;;;3.82;40.38;103322.41;4944668;28;20451;-46
2022/03/11 09:14:45;;;;;;;19.38;7.47;;;;;;;3.88;40.32;103318.34;4946136;28;20090;-45
2022/03/11 09:17:11;;;;;;;16.63;8.65;;;;;;;3.96;40.01;103321.16;4945184;28;20608;-46
2022/03/11 09:19:36;;;;;;;21.02;7.68;;;;;;;4.05;39.85;103314.16;4945268;28;20560;-46
2022/03/11 09:22:02;;;;;;;19.48;8.10;;;;;;;4.11;39.59;103308.25;4943880;28;20452;-47
2022/03/11 09:24:28;;;;;;;12.20;6.47;;;;;;;4.18;39.38;103310.22;4937363;28;20038;-47
2022/03/11 09:26:53;;;;;;;18.52;8.82;;;;;;;4.25;39.06;103313.13;4943953;28;20082;-48
2022/03/11 09:29:19;;;;;;;17.55;7.05;;;;;;;4.31;38.81;103309.91;4944660;28;20473;-46
2022/03/11 09:31:44;;;;;;;17.85;8.10;;;;;;;4.39;38.95;103311.84;4946532;28;20031;-48
2022/03/11 09:34:10;;;;;;;17.85;8.32;;;;;;;4.47;38.75;103307.47;4940349;28;20176;-46
2022/03/11 09:36:36;;;;;;;18.45;6.90;;;;;;;4.56;38.35;103308.44;4947370;28;20524;-46
2022/03/11 09:39:02;;;;;;;14.90;7.72;;;;;;;4.66;38.20;103308.38;4946919;28;20031;-47
2022/03/11 09:41:27;;;;;;;13.43;7.72;;;;;;;4.72;38.01;103310.47;4948823;28;20038;-47
2022/03/11 09:43:54;;;;;;;16.48;7.43;;;;;;;4.80;37.86;103305.25;4947691;28;20035;-48
2022/03/11 09:46:21;;;;;;;16.67;7.25;;;;;;;4.87;37.70;103301.03;4944821;28;20019;-47
2022/03/11 09:48:47;;;;;;;15.20;7.20;;;;;;;4.94;37.60;103306.56;4944837;29;20433;-48
2022/03/11 09:51:12;;;;;;;17.45;6.90;;;;;;;5.03;37.39;103303.88;4948063;28;20078;-47
2022/03/11 09:53:42;;;;;;;11.70;5.72;;;;;;;5.10;37.22;103307.59;4948393;28;20063;-46
2022/03/11 09:56:07;;;;;;;10.25;5.82;;;;;;;5.14;36.62;103300.16;4946591;28;20070;-48
2022/03/11 09:58:33;;;;;;;13.85;7.10;;;;;;;5.21;36.52;103301.25;4949015;28;20612;-46
2022/03/11 10:00:58;;;;;;;11.43;5.93;;;;;;;5.25;36.32;103313.25;4947450;28;20032;-47
2022/03/11 10:03:24;;;;;;;14.73;6.03;;;;;;;5.32;36.22;103300.16;4947018;28;20023;-47
2022/03/11 10:05:52;;;;;;;11.85;5.45;;;;;;;5.40;36.04;103302.94;4947221;29;20027;-51
2022/03/11 10:08:33;;;;;;;12.63;6.30;;;;;;;5.44;35.24;103293.66;4949330;29;20051;-46
2022/03/11 10:11:28;;;;;;;12.23;5.72;;;;;;;5.51;34.29;103299.19;4946131;28;20538;-46
2022/03/11 10:14:04;;;;;;;12.95;6.07;;;;;;;5.62;33.82;103293.66;4931967;28;20046;-49
2022/03/11 10:16:30;;;;;;;12.90;6.22;;;;;;;5.73;35.23;103288.91;4940904;29;20023;-49
2022/03/11 10:19:04;;;;;;;10.82;5.28;;;;;;;5.88;35.31;103294.50;4943447;28;20047;-49
2022/03/11 10:21:43;;;;;;;15.15;6.50;;;;;;;5.99;34.82;103291.66;4944316;29;20074;-47
2022/03/11 10:24:11;;;;;;;14.70;6.00;;;;;;;6.11;34.97;103286.91;4945864;29;20058;-47
2022/03/11 10:26:44;;;;;;;14.30;5.80;;;;;;;6.15;34.22;103287.44;4944839;28;20050;-48
2022/03/11 10:29:15;;;;;;;11.45;5.10;;;;;;;6.22;34.14;103286.63;4945930;28;20049;-47
2022/03/11 10:31:43;;;;;;;19.25;6.35;;;;;;;6.26;34.06;103290.66;4944483;29;20058;-47
2022/03/11 10:34:32;;;;;;;15.65;5.93;;;;;;;6.29;33.11;103289.53;4945902;29;20107;-48
2022/03/11 10:37:01;;;;;;;14.68;5.88;;;;;;;6.39;33.60;103287.56;4944863;28;20117;-47
2022/03/11 10:39:37;;;;;;;11.10;5.20;;;;;;;6.44;32.54;103293.25;4944111;28;20093;-47
2022/03/11 10:42:11;;;;;;;11.00;4.40;;;;;;;6.53;32.57;103291.47;4943603;29;20105;-47
2022/03/11 10:44:38;;;;;;;10.50;4.90;;;;;;;6.61;33.25;103279.00;4943437;28;20038;-47
2022/03/11 10:47:30;;;;;;;7.45;4.75;;;;;;;6.66;31.90;103281.22;4945502;28;20043;-48
2022/03/11 10:49:59;;;;;;;12.55;5.22;;;;;;;6.84;32.71;103283.78;4943869;29;20027;-49
2022/03/11 10:52:45;;;;;;;10.70;4.78;;;;;;;6.92;32.49;103279.28;4944940;28;20198;-47
2022/03/11 10:55:18;;;;;;;11.65;5.57;;;;;;;7.07;32.43;103278.69;4945338;29;20042;-47
2022/03/11 10:57:45;;;;;;;10.63;5.10;;;;;;;7.16;32.49;103267.84;4942236;29;20031;-47
2022/03/11 11:00:30;;;;;;;10.32;5.20;;;;;;;7.23;32.00;103268.03;4946611;28;20078;-48
2022/03/11 11:02:58;;;;;;;8.57;4.72;;;;;;;7.36;32.38;103268.41;4941446;29;20049;-47
2022/03/11 11:05:26;;;;;;;13.48;5.20;;;;;;;7.47;31.81;103265.41;4944593;28;20493;-47
2022/03/11 11:07:53;;;;;;;10.75;5.40;;;;;;;7.54;31.92;103268.22;4946755;28;20038;-47
2022/03/11 11:10:21;;;;;;;10.32;5.00;;;;;;;7.61;31.63;103255.06;4945183;28;20486;-47
2022/03/11 11:12:47;;;;;;;10.48;4.10;;;;;;;7.73;31.56;103251.06;4941814;28;20211;-47
2022/03/11 11:15:15;;;;;;;8.32;4.60;;;;;;;7.82;31.21;103252.72;4945220;28;20035;-47
2022/03/11 11:17:42;;;;;;;12.40;5.25;;;;;;;7.91;31.02;103241.03;4944795;29;20766;-47